Terminal Aerodrome Forecast
Issued by NWS

Current Version | Previous Version | Text Only | Print | Product List | Glossary On
Versions: 1 2 3 4 5 6 7 8 9 10 11 12 13 14 15 16
000
FTPA31 PHFO 311120
TAFHMK
TAF
PHMK 311120Z 3112/0112 02008KT P6SM VCSH SCT020 BKN050
      TEMPO 3112/3116 -SHRA SCT015 BKN030
     FM312000 03011G19KT P6SM VCSH SCT020 BKN050
     FM010500 03009KT P6SM VCSH SCT020 BKN045=

USA.gov is the U.S. government's official web portal to all federal, state and local government web resources and services.